sensor_id;sensor_type;location;lat;lon;timestamp;P1;durP1;ratioP1;P2;durP2;ratioP2
60851;SDS011;48553;50.766;2.900;2023-04-24T00:00:35;6.25;;;2.85;;
60851;SDS011;48553;50.766;2.900;2023-04-24T00:03:36;5.53;;;3.40;;
60851;SDS011;48553;50.766;2.900;2023-04-24T00:06:37;8.23;;;3.78;;
60851;SDS011;48553;50.766;2.900;2023-04-24T00:09:37;7.68;;;3.75;;
60851;SDS011;48553;50.766;2.900;2023-04-24T00:12:38;9.88;;;4.22;;
60851;SDS011;48553;50.766;2.900;2023-04-24T00:15:38;12.93;;;4.75;;
60851;SDS011;48553;50.766;2.900;2023-04-24T00:18:39;9.48;;;4.90;;
60851;SDS011;48553;50.766;2.900;2023-04-24T00:21:40;14.23;;;5.43;;
60851;SDS011;48553;50.766;2.900;2023-04-24T00:24:41;11.10;;;5.72;;
60851;SDS011;48553;50.766;2.900;2023-04-24T00:27:41;11.18;;;5.80;;
60851;SDS011;48553;50.766;2.900;2023-04-24T00:30:42;10.93;;;5.63;;
60851;SDS011;48553;50.766;2.900;2023-04-24T00:33:42;12.35;;;5.82;;
60851;SDS011;48553;50.766;2.900;2023-04-24T00:36:43;9.55;;;5.53;;
60851;SDS011;48553;50.766;2.900;2023-04-24T00:39:43;9.82;;;5.03;;
60851;SDS011;48553;50.766;2.900;2023-04-24T00:42:44;10.25;;;5.07;;
60851;SDS011;48553;50.766;2.900;2023-04-24T00:45:45;11.02;;;5.15;;
60851;SDS011;48553;50.766;2.900;2023-04-24T00:48:46;12.35;;;5.38;;
60851;SDS011;48553;50.766;2.900;2023-04-24T00:51:46;10.55;;;5.20;;
60851;SDS011;48553;50.766;2.900;2023-04-24T00:54:47;11.80;;;4.80;;
60851;SDS011;48553;50.766;2.900;2023-04-24T00:57:48;8.13;;;4.78;;
60851;SDS011;48553;50.766;2.900;2023-04-24T01:00:49;8.23;;;4.38;;
60851;SDS011;48553;50.766;2.900;2023-04-24T01:03:53;11.53;;;5.03;;
60851;SDS011;48553;50.766;2.900;2023-04-24T01:06:54;11.05;;;4.60;;
60851;SDS011;48553;50.766;2.900;2023-04-24T01:09:55;8.38;;;4.80;;
60851;SDS011;48553;50.766;2.900;2023-04-24T01:12:56;11.82;;;5.10;;
60851;SDS011;48553;50.766;2.900;2023-04-24T01:15:57;10.25;;;5.00;;
60851;SDS011;48553;50.766;2.900;2023-04-24T01:18:58;9.95;;;4.80;;
60851;SDS011;48553;50.766;2.900;2023-04-24T01:21:59;10.00;;;4.72;;
60851;SDS011;48553;50.766;2.900;2023-04-24T01:25:02;9.85;;;4.43;;
60851;SDS011;48553;50.766;2.900;2023-04-24T01:28:03;9.50;;;4.75;;
60851;SDS011;48553;50.766;2.900;2023-04-24T01:31:04;11.88;;;5.55;;
60851;SDS011;48553;50.766;2.900;2023-04-24T01:34:04;10.70;;;5.32;;
60851;SDS011;48553;50.766;2.900;2023-04-24T01:37:05;11.40;;;5.10;;
60851;SDS011;48553;50.766;2.900;2023-04-24T01:40:06;10.18;;;5.47;;
60851;SDS011;48553;50.766;2.900;2023-04-24T01:43:07;11.90;;;5.97;;
60851;SDS011;48553;50.766;2.900;2023-04-24T01:46:07;11.73;;;6.57;;
60851;SDS011;48553;50.766;2.900;2023-04-24T01:49:08;13.23;;;6.47;;
60851;SDS011;48553;50.766;2.900;2023-04-24T01:52:08;13.45;;;7.05;;
60851;SDS011;48553;50.766;2.900;2023-04-24T01:55:09;15.57;;;7.72;;
60851;SDS011;48553;50.766;2.900;2023-04-24T01:58:10;17.35;;;8.52;;
60851;SDS011;48553;50.766;2.900;2023-04-24T02:01:14;16.95;;;8.98;;
60851;SDS011;48553;50.766;2.900;2023-04-24T02:04:18;16.13;;;8.45;;
60851;SDS011;48553;50.766;2.900;2023-04-24T02:07:18;17.42;;;8.93;;
60851;SDS011;48553;50.766;2.900;2023-04-24T02:10:19;19.92;;;8.80;;
60851;SDS011;48553;50.766;2.900;2023-04-24T02:13:20;18.50;;;8.98;;
60851;SDS011;48553;50.766;2.900;2023-04-24T02:16:20;15.57;;;8.68;;
60851;SDS011;48553;50.766;2.900;2023-04-24T02:19:20;16.70;;;8.85;;
60851;SDS011;48553;50.766;2.900;2023-04-24T02:22:21;17.95;;;8.50;;
60851;SDS011;48553;50.766;2.900;2023-04-24T02:25:21;16.85;;;8.45;;
60851;SDS011;48553;50.766;2.900;2023-04-24T02:28:22;21.05;;;9.60;;
60851;SDS011;48553;50.766;2.900;2023-04-24T02:31:22;16.77;;;9.00;;
60851;SDS011;48553;50.766;2.900;2023-04-24T02:34:23;16.52;;;8.98;;
60851;SDS011;48553;50.766;2.900;2023-04-24T02:37:23;15.77;;;9.32;;
60851;SDS011;48553;50.766;2.900;2023-04-24T02:40:24;17.30;;;9.18;;
60851;SDS011;48553;50.766;2.900;2023-04-24T02:43:24;16.77;;;8.52;;
60851;SDS011;48553;50.766;2.900;2023-04-24T02:46:25;17.35;;;8.80;;
60851;SDS011;48553;50.766;2.900;2023-04-24T02:49:26;16.77;;;8.02;;
60851;SDS011;48553;50.766;2.900;2023-04-24T02:52:27;16.08;;;8.77;;
60851;SDS011;48553;50.766;2.900;2023-04-24T02:55:27;18.38;;;8.15;;
60851;SDS011;48553;50.766;2.900;2023-04-24T02:58:28;17.55;;;8.30;;
60851;SDS011;48553;50.766;2.900;2023-04-24T03:01:28;16.13;;;8.57;;
60851;SDS011;48553;50.766;2.900;2023-04-24T03:04:29;19.60;;;8.52;;
60851;SDS011;48553;50.766;2.900;2023-04-24T03:07:29;19.77;;;8.60;;
60851;SDS011;48553;50.766;2.900;2023-04-24T03:10:31;18.63;;;9.00;;
60851;SDS011;48553;50.766;2.900;2023-04-24T03:13:32;18.83;;;9.48;;
60851;SDS011;48553;50.766;2.900;2023-04-24T03:16:32;21.10;;;10.02;;
60851;SDS011;48553;50.766;2.900;2023-04-24T03:19:33;19.42;;;10.13;;
60851;SDS011;48553;50.766;2.900;2023-04-24T03:22:33;18.98;;;9.65;;
60851;SDS011;48553;50.766;2.900;2023-04-24T03:25:34;21.63;;;10.80;;
60851;SDS011;48553;50.766;2.900;2023-04-24T03:28:34;26.38;;;11.25;;
60851;SDS011;48553;50.766;2.900;2023-04-24T03:31:35;22.10;;;11.07;;
60851;SDS011;48553;50.766;2.900;2023-04-24T03:34:35;20.13;;;10.65;;
60851;SDS011;48553;50.766;2.900;2023-04-24T03:37:36;24.50;;;11.38;;
60851;SDS011;48553;50.766;2.900;2023-04-24T03:40:36;20.38;;;10.32;;
60851;SDS011;48553;50.766;2.900;2023-04-24T03:43:37;22.60;;;11.05;;
60851;SDS011;48553;50.766;2.900;2023-04-24T03:46:38;20.40;;;10.10;;
60851;SDS011;48553;50.766;2.900;2023-04-24T03:49:38;23.35;;;9.23;;
60851;SDS011;48553;50.766;2.900;2023-04-24T03:52:38;17.23;;;9.32;;
60851;SDS011;48553;50.766;2.900;2023-04-24T03:55:39;19.23;;;9.25;;
60851;SDS011;48553;50.766;2.900;2023-04-24T03:58:40;19.25;;;8.57;;
60851;SDS011;48553;50.766;2.900;2023-04-24T04:01:40;14.32;;;7.45;;
60851;SDS011;48553;50.766;2.900;2023-04-24T04:04:40;18.42;;;7.95;;
60851;SDS011;48553;50.766;2.900;2023-04-24T04:07:41;16.48;;;7.22;;
60851;SDS011;48553;50.766;2.900;2023-04-24T04:10:41;15.82;;;7.00;;
60851;SDS011;48553;50.766;2.900;2023-04-24T04:13:42;16.13;;;7.75;;
60851;SDS011;48553;50.766;2.900;2023-04-24T04:16:42;19.00;;;7.38;;
60851;SDS011;48553;50.766;2.900;2023-04-24T04:19:43;14.50;;;7.32;;
60851;SDS011;48553;50.766;2.900;2023-04-24T04:22:43;14.35;;;7.25;;
60851;SDS011;48553;50.766;2.900;2023-04-24T04:25:44;11.38;;;6.75;;
60851;SDS011;48553;50.766;2.900;2023-04-24T04:28:44;13.93;;;7.07;;
60851;SDS011;48553;50.766;2.900;2023-04-24T04:31:44;15.93;;;7.50;;
60851;SDS011;48553;50.766;2.900;2023-04-24T04:34:45;15.80;;;7.18;;
60851;SDS011;48553;50.766;2.900;2023-04-24T04:37:45;16.55;;;7.22;;
60851;SDS011;48553;50.766;2.900;2023-04-24T04:40:46;17.10;;;7.38;;
60851;SDS011;48553;50.766;2.900;2023-04-24T04:43:46;15.88;;;7.95;;
60851;SDS011;48553;50.766;2.900;2023-04-24T04:46:47;17.33;;;8.07;;
60851;SDS011;48553;50.766;2.900;2023-04-24T04:49:48;18.77;;;8.80;;
60851;SDS011;48553;50.766;2.900;2023-04-24T04:52:48;17.98;;;8.32;;
60851;SDS011;48553;50.766;2.900;2023-04-24T04:55:49;22.85;;;8.85;;
60851;SDS011;48553;50.766;2.900;2023-04-24T04:58:50;17.30;;;8.20;;
60851;SDS011;48553;50.766;2.900;2023-04-24T05:01:50;19.77;;;8.85;;
60851;SDS011;48553;50.766;2.900;2023-04-24T05:04:50;18.17;;;8.40;;
60851;SDS011;48553;50.766;2.900;2023-04-24T05:07:51;20.50;;;9.02;;
60851;SDS011;48553;50.766;2.900;2023-04-24T05:10:51;19.58;;;9.45;;
60851;SDS011;48553;50.766;2.900;2023-04-24T05:13:52;17.20;;;9.02;;
60851;SDS011;48553;50.766;2.900;2023-04-24T05:16:52;20.67;;;10.00;;
60851;SDS011;48553;50.766;2.900;2023-04-24T05:19:53;19.33;;;9.75;;
60851;SDS011;48553;50.766;2.900;2023-04-24T05:22:53;23.35;;;9.32;;
60851;SDS011;48553;50.766;2.900;2023-04-24T05:25:53;21.38;;;9.52;;
60851;SDS011;48553;50.766;2.900;2023-04-24T05:28:54;18.90;;;9.60;;
60851;SDS011;48553;50.766;2.900;2023-04-24T05:31:55;20.40;;;10.18;;
60851;SDS011;48553;50.766;2.900;2023-04-24T05:34:55;25.35;;;9.88;;
60851;SDS011;48553;50.766;2.900;2023-04-24T05:37:56;21.27;;;9.77;;
60851;SDS011;48553;50.766;2.900;2023-04-24T05:40:56;20.08;;;9.68;;
60851;SDS011;48553;50.766;2.900;2023-04-24T05:43:56;25.08;;;10.02;;
60851;SDS011;48553;50.766;2.900;2023-04-24T05:46:57;20.30;;;9.68;;
60851;SDS011;48553;50.766;2.900;2023-04-24T05:49:57;21.45;;;10.20;;
60851;SDS011;48553;50.766;2.900;2023-04-24T05:52:58;22.75;;;10.70;;
60851;SDS011;48553;50.766;2.900;2023-04-24T05:55:58;22.55;;;10.30;;
60851;SDS011;48553;50.766;2.900;2023-04-24T05:58:59;25.27;;;10.45;;
60851;SDS011;48553;50.766;2.900;2023-04-24T06:02:01;20.50;;;10.18;;
60851;SDS011;48553;50.766;2.900;2023-04-24T06:05:02;21.85;;;9.95;;
60851;SDS011;48553;50.766;2.900;2023-04-24T06:08:02;22.88;;;10.30;;
60851;SDS011;48553;50.766;2.900;2023-04-24T06:11:03;18.52;;;9.85;;
60851;SDS011;48553;50.766;2.900;2023-04-24T06:14:03;24.35;;;10.57;;
60851;SDS011;48553;50.766;2.900;2023-04-24T06:17:04;20.50;;;9.98;;
60851;SDS011;48553;50.766;2.900;2023-04-24T06:20:05;21.45;;;10.30;;
60851;SDS011;48553;50.766;2.900;2023-04-24T06:23:07;20.52;;;10.30;;
60851;SDS011;48553;50.766;2.900;2023-04-24T06:26:08;23.20;;;10.45;;
60851;SDS011;48553;50.766;2.900;2023-04-24T06:29:08;22.02;;;10.30;;
60851;SDS011;48553;50.766;2.900;2023-04-24T06:32:09;25.08;;;11.00;;
60851;SDS011;48553;50.766;2.900;2023-04-24T06:35:09;23.88;;;10.73;;
60851;SDS011;48553;50.766;2.900;2023-04-24T06:38:11;20.23;;;10.52;;
60851;SDS011;48553;50.766;2.900;2023-04-24T06:41:11;22.05;;;10.82;;
60851;SDS011;48553;50.766;2.900;2023-04-24T06:44:12;22.42;;;11.00;;
60851;SDS011;48553;50.766;2.900;2023-04-24T06:47:14;22.95;;;11.15;;
60851;SDS011;48553;50.766;2.900;2023-04-24T06:50:15;24.77;;;11.05;;
60851;SDS011;48553;50.766;2.900;2023-04-24T06:53:15;24.48;;;11.48;;
60851;SDS011;48553;50.766;2.900;2023-04-24T06:56:16;25.75;;;11.98;;
60851;SDS011;48553;50.766;2.900;2023-04-24T06:59:16;22.15;;;11.02;;
60851;SDS011;48553;50.766;2.900;2023-04-24T07:02:17;22.63;;;11.32;;
60851;SDS011;48553;50.766;2.900;2023-04-24T07:05:17;20.90;;;11.32;;
60851;SDS011;48553;50.766;2.900;2023-04-24T07:08:19;22.95;;;11.63;;
60851;SDS011;48553;50.766;2.900;2023-04-24T07:11:21;25.30;;;12.23;;
60851;SDS011;48553;50.766;2.900;2023-04-24T07:14:22;26.52;;;12.15;;
60851;SDS011;48553;50.766;2.900;2023-04-24T07:17:22;27.10;;;11.02;;
60851;SDS011;48553;50.766;2.900;2023-04-24T07:20:23;22.70;;;11.00;;
60851;SDS011;48553;50.766;2.900;2023-04-24T07:23:23;20.10;;;10.90;;
60851;SDS011;48553;50.766;2.900;2023-04-24T07:26:23;20.13;;;11.20;;
60851;SDS011;48553;50.766;2.900;2023-04-24T07:29:25;22.08;;;11.60;;
60851;SDS011;48553;50.766;2.900;2023-04-24T07:32:25;20.30;;;11.05;;
60851;SDS011;48553;50.766;2.900;2023-04-24T07:35:26;23.17;;;11.10;;
60851;SDS011;48553;50.766;2.900;2023-04-24T07:38:28;22.92;;;11.00;;
60851;SDS011;48553;50.766;2.900;2023-04-24T07:41:29;22.70;;;10.85;;
60851;SDS011;48553;50.766;2.900;2023-04-24T07:44:30;17.13;;;9.57;;
60851;SDS011;48553;50.766;2.900;2023-04-24T07:47:30;19.05;;;9.75;;
60851;SDS011;48553;50.766;2.900;2023-04-24T07:50:31;22.27;;;10.02;;
60851;SDS011;48553;50.766;2.900;2023-04-24T07:53:32;20.38;;;10.05;;
60851;SDS011;48553;50.766;2.900;2023-04-24T07:56:32;19.35;;;9.25;;
60851;SDS011;48553;50.766;2.900;2023-04-24T07:59:33;19.05;;;9.60;;
60851;SDS011;48553;50.766;2.900;2023-04-24T08:02:34;20.65;;;9.32;;
60851;SDS011;48553;50.766;2.900;2023-04-24T08:05:34;19.23;;;9.77;;
60851;SDS011;48553;50.766;2.900;2023-04-24T08:08:35;21.58;;;9.93;;
60851;SDS011;48553;50.766;2.900;2023-04-24T08:11:35;20.58;;;10.20;;
60851;SDS011;48553;50.766;2.900;2023-04-24T08:14:36;24.70;;;10.77;;
60851;SDS011;48553;50.766;2.900;2023-04-24T08:17:36;24.75;;;10.90;;
60851;SDS011;48553;50.766;2.900;2023-04-24T08:20:36;21.55;;;10.75;;
60851;SDS011;48553;50.766;2.900;2023-04-24T08:23:37;23.95;;;10.55;;
60851;SDS011;48553;50.766;2.900;2023-04-24T08:26:37;21.13;;;10.73;;
60851;SDS011;48553;50.766;2.900;2023-04-24T08:29:38;21.83;;;11.25;;
60851;SDS011;48553;50.766;2.900;2023-04-24T08:32:38;22.80;;;10.82;;
60851;SDS011;48553;50.766;2.900;2023-04-24T08:35:39;23.98;;;11.13;;
60851;SDS011;48553;50.766;2.900;2023-04-24T08:38:39;22.73;;;10.70;;
60851;SDS011;48553;50.766;2.900;2023-04-24T08:41:41;22.75;;;10.60;;
60851;SDS011;48553;50.766;2.900;2023-04-24T08:44:43;22.33;;;10.48;;
60851;SDS011;48553;50.766;2.900;2023-04-24T08:47:44;22.63;;;10.48;;
60851;SDS011;48553;50.766;2.900;2023-04-24T08:50:45;20.60;;;10.05;;
60851;SDS011;48553;50.766;2.900;2023-04-24T08:53:48;23.17;;;10.50;;
60851;SDS011;48553;50.766;2.900;2023-04-24T08:56:48;17.83;;;9.57;;
60851;SDS011;48553;50.766;2.900;2023-04-24T08:59:49;19.42;;;10.30;;
60851;SDS011;48553;50.766;2.900;2023-04-24T09:02:51;24.02;;;10.15;;
60851;SDS011;48553;50.766;2.900;2023-04-24T09:05:53;18.58;;;9.80;;
60851;SDS011;48553;50.766;2.900;2023-04-24T09:08:55;18.20;;;10.10;;
60851;SDS011;48553;50.766;2.900;2023-04-24T09:11:56;20.10;;;9.50;;
60851;SDS011;48553;50.766;2.900;2023-04-24T09:14:58;20.73;;;9.35;;
60851;SDS011;48553;50.766;2.900;2023-04-24T09:18:00;19.95;;;9.45;;
60851;SDS011;48553;50.766;2.900;2023-04-24T09:21:06;18.50;;;9.45;;
60851;SDS011;48553;50.766;2.900;2023-04-24T09:24:08;17.58;;;9.07;;
60851;SDS011;48553;50.766;2.900;2023-04-24T09:27:17;19.88;;;9.70;;
60851;SDS011;48553;50.766;2.900;2023-04-24T09:30:21;17.65;;;8.93;;
60851;SDS011;48553;50.766;2.900;2023-04-24T09:33:22;17.75;;;9.70;;
60851;SDS011;48553;50.766;2.900;2023-04-24T09:36:26;20.70;;;9.27;;
60851;SDS011;48553;50.766;2.900;2023-04-24T09:39:34;18.55;;;9.18;;
60851;SDS011;48553;50.766;2.900;2023-04-24T09:42:34;19.15;;;9.43;;
60851;SDS011;48553;50.766;2.900;2023-04-24T09:45:36;18.63;;;9.40;;
60851;SDS011;48553;50.766;2.900;2023-04-24T09:48:37;17.33;;;8.60;;
60851;SDS011;48553;50.766;2.900;2023-04-24T09:51:38;19.95;;;9.45;;
60851;SDS011;48553;50.766;2.900;2023-04-24T09:54:39;15.45;;;8.80;;
60851;SDS011;48553;50.766;2.900;2023-04-24T10:00:49;18.77;;;8.82;;
60851;SDS011;48553;50.766;2.900;2023-04-24T10:03:50;17.73;;;8.75;;
60851;SDS011;48553;50.766;2.900;2023-04-24T10:06:52;16.70;;;8.88;;
60851;SDS011;48553;50.766;2.900;2023-04-24T10:09:54;17.88;;;9.48;;
60851;SDS011;48553;50.766;2.900;2023-04-24T10:12:54;19.17;;;9.35;;
60851;SDS011;48553;50.766;2.900;2023-04-24T10:15:55;16.52;;;8.48;;
60851;SDS011;48553;50.766;2.900;2023-04-24T10:18:57;19.02;;;9.13;;
60851;SDS011;48553;50.766;2.900;2023-04-24T10:21:59;16.65;;;9.30;;
60851;SDS011;48553;50.766;2.900;2023-04-24T10:25:01;20.52;;;10.43;;
60851;SDS011;48553;50.766;2.900;2023-04-24T10:28:04;18.33;;;9.70;;
60851;SDS011;48553;50.766;2.900;2023-04-24T10:31:05;21.48;;;10.55;;
60851;SDS011;48553;50.766;2.900;2023-04-24T10:34:07;18.80;;;9.18;;
60851;SDS011;48553;50.766;2.900;2023-04-24T10:37:09;18.33;;;9.77;;
60851;SDS011;48553;50.766;2.900;2023-04-24T10:40:09;18.17;;;9.65;;
60851;SDS011;48553;50.766;2.900;2023-04-24T10:43:10;17.38;;;9.73;;
60851;SDS011;48553;50.766;2.900;2023-04-24T10:46:19;18.52;;;9.00;;
60851;SDS011;48553;50.766;2.900;2023-04-24T10:49:28;18.25;;;9.68;;
60851;SDS011;48553;50.766;2.900;2023-04-24T10:52:45;17.80;;;10.50;;
60851;SDS011;48553;50.766;2.900;2023-04-24T10:55:47;17.80;;;9.73;;
60851;SDS011;48553;50.766;2.900;2023-04-24T10:58:50;16.88;;;9.32;;
60851;SDS011;48553;50.766;2.900;2023-04-24T11:01:53;19.17;;;10.25;;
60851;SDS011;48553;50.766;2.900;2023-04-24T11:04:57;18.42;;;9.35;;
60851;SDS011;48553;50.766;2.900;2023-04-24T11:11:17;17.75;;;9.07;;
60851;SDS011;48553;50.766;2.900;2023-04-24T11:14:20;16.23;;;8.38;;
60851;SDS011;48553;50.766;2.900;2023-04-24T11:17:31;17.13;;;8.80;;
60851;SDS011;48553;50.766;2.900;2023-04-24T11:20:38;19.77;;;9.20;;
60851;SDS011;48553;50.766;2.900;2023-04-24T11:23:42;16.77;;;9.23;;
60851;SDS011;48553;50.766;2.900;2023-04-24T11:26:42;14.90;;;8.60;;
60851;SDS011;48553;50.766;2.900;2023-04-24T11:29:49;15.35;;;8.57;;
60851;SDS011;48553;50.766;2.900;2023-04-24T11:32:52;17.85;;;9.48;;
60851;SDS011;48553;50.766;2.900;2023-04-24T11:35:53;18.00;;;9.52;;
60851;SDS011;48553;50.766;2.900;2023-04-24T11:38:53;18.73;;;9.32;;
60851;SDS011;48553;50.766;2.900;2023-04-24T11:41:54;15.88;;;9.40;;
60851;SDS011;48553;50.766;2.900;2023-04-24T11:45:07;16.27;;;9.18;;
60851;SDS011;48553;50.766;2.900;2023-04-24T11:48:09;13.40;;;8.40;;
60851;SDS011;48553;50.766;2.900;2023-04-24T11:51:11;14.63;;;8.15;;
60851;SDS011;48553;50.766;2.900;2023-04-24T11:54:12;16.25;;;8.27;;
60851;SDS011;48553;50.766;2.900;2023-04-24T11:57:12;14.40;;;8.13;;
60851;SDS011;48553;50.766;2.900;2023-04-24T12:00:17;13.18;;;8.32;;
60851;SDS011;48553;50.766;2.900;2023-04-24T12:03:19;16.88;;;8.18;;
60851;SDS011;48553;50.766;2.900;2023-04-24T12:06:19;12.32;;;7.45;;
60851;SDS011;48553;50.766;2.900;2023-04-24T12:09:20;14.20;;;8.60;;
60851;SDS011;48553;50.766;2.900;2023-04-24T12:12:20;16.98;;;10.15;;
60851;SDS011;48553;50.766;2.900;2023-04-24T12:15:21;16.73;;;11.13;;
60851;SDS011;48553;50.766;2.900;2023-04-24T12:18:22;15.63;;;9.00;;
60851;SDS011;48553;50.766;2.900;2023-04-24T12:21:23;15.98;;;9.50;;
60851;SDS011;48553;50.766;2.900;2023-04-24T12:24:26;13.15;;;7.85;;
60851;SDS011;48553;50.766;2.900;2023-04-24T12:27:30;16.40;;;10.52;;
60851;SDS011;48553;50.766;2.900;2023-04-24T12:30:34;16.98;;;10.27;;
60851;SDS011;48553;50.766;2.900;2023-04-24T12:33:39;15.35;;;9.25;;
60851;SDS011;48553;50.766;2.900;2023-04-24T12:36:40;17.58;;;10.68;;
60851;SDS011;48553;50.766;2.900;2023-04-24T12:39:44;15.40;;;8.88;;
60851;SDS011;48553;50.766;2.900;2023-04-24T12:42:59;15.30;;;8.90;;
60851;SDS011;48553;50.766;2.900;2023-04-24T12:46:00;14.45;;;9.70;;
60851;SDS011;48553;50.766;2.900;2023-04-24T12:49:00;16.42;;;10.13;;
60851;SDS011;48553;50.766;2.900;2023-04-24T12:52:00;19.30;;;11.75;;
60851;SDS011;48553;50.766;2.900;2023-04-24T12:55:01;20.08;;;11.50;;
60851;SDS011;48553;50.766;2.900;2023-04-24T12:58:03;13.80;;;8.70;;
60851;SDS011;48553;50.766;2.900;2023-04-24T13:01:03;19.25;;;10.07;;
60851;SDS011;48553;50.766;2.900;2023-04-24T13:04:04;16.65;;;10.10;;
60851;SDS011;48553;50.766;2.900;2023-04-24T13:07:05;19.52;;;12.55;;
60851;SDS011;48553;50.766;2.900;2023-04-24T13:10:06;13.75;;;8.25;;
60851;SDS011;48553;50.766;2.900;2023-04-24T13:13:07;15.25;;;7.47;;
60851;SDS011;48553;50.766;2.900;2023-04-24T13:16:07;12.93;;;6.93;;
60851;SDS011;48553;50.766;2.900;2023-04-24T13:19:08;13.02;;;7.35;;
60851;SDS011;48553;50.766;2.900;2023-04-24T13:22:09;12.50;;;6.55;;
60851;SDS011;48553;50.766;2.900;2023-04-24T13:25:11;13.77;;;7.57;;
60851;SDS011;48553;50.766;2.900;2023-04-24T13:28:11;12.88;;;6.60;;
60851;SDS011;48553;50.766;2.900;2023-04-24T13:31:11;15.27;;;6.90;;
60851;SDS011;48553;50.766;2.900;2023-04-24T13:34:13;13.35;;;6.60;;
60851;SDS011;48553;50.766;2.900;2023-04-24T13:37:14;13.85;;;6.88;;
60851;SDS011;48553;50.766;2.900;2023-04-24T13:40:14;13.90;;;6.28;;
60851;SDS011;48553;50.766;2.900;2023-04-24T13:43:14;12.95;;;6.28;;
60851;SDS011;48553;50.766;2.900;2023-04-24T13:46:16;12.07;;;6.20;;
60851;SDS011;48553;50.766;2.900;2023-04-24T13:49:16;11.10;;;6.43;;
60851;SDS011;48553;50.766;2.900;2023-04-24T13:52:17;11.65;;;6.68;;
60851;SDS011;48553;50.766;2.900;2023-04-24T13:55:17;14.00;;;7.07;;
60851;SDS011;48553;50.766;2.900;2023-04-24T13:58:17;13.93;;;7.18;;
60851;SDS011;48553;50.766;2.900;2023-04-24T14:01:18;14.90;;;7.68;;
60851;SDS011;48553;50.766;2.900;2023-04-24T14:04:18;14.57;;;7.35;;
60851;SDS011;48553;50.766;2.900;2023-04-24T14:07:19;13.10;;;6.78;;
60851;SDS011;48553;50.766;2.900;2023-04-24T14:10:19;12.05;;;6.65;;
60851;SDS011;48553;50.766;2.900;2023-04-24T14:13:19;11.43;;;6.57;;
60851;SDS011;48553;50.766;2.900;2023-04-24T14:16:20;11.80;;;6.80;;
60851;SDS011;48553;50.766;2.900;2023-04-24T14:19:21;14.23;;;6.82;;
60851;SDS011;48553;50.766;2.900;2023-04-24T14:22:21;13.23;;;7.13;;
60851;SDS011;48553;50.766;2.900;2023-04-24T14:25:22;14.95;;;7.22;;
60851;SDS011;48553;50.766;2.900;2023-04-24T14:28:23;11.57;;;6.50;;
60851;SDS011;48553;50.766;2.900;2023-04-24T14:31:24;11.98;;;6.43;;
60851;SDS011;48553;50.766;2.900;2023-04-24T14:34:25;11.15;;;5.57;;
60851;SDS011;48553;50.766;2.900;2023-04-24T14:37:25;10.52;;;6.10;;
60851;SDS011;48553;50.766;2.900;2023-04-24T14:40:26;8.68;;;5.30;;
60851;SDS011;48553;50.766;2.900;2023-04-24T14:43:26;10.35;;;5.95;;
60851;SDS011;48553;50.766;2.900;2023-04-24T14:46:26;9.57;;;5.35;;
60851;SDS011;48553;50.766;2.900;2023-04-24T14:49:27;11.13;;;6.00;;
60851;SDS011;48553;50.766;2.900;2023-04-24T14:52:27;8.70;;;5.82;;
60851;SDS011;48553;50.766;2.900;2023-04-24T14:55:28;11.70;;;6.00;;
60851;SDS011;48553;50.766;2.900;2023-04-24T14:58:28;10.18;;;5.30;;
60851;SDS011;48553;50.766;2.900;2023-04-24T15:01:29;8.50;;;5.45;;
60851;SDS011;48553;50.766;2.900;2023-04-24T15:04:29;9.98;;;5.25;;
60851;SDS011;48553;50.766;2.900;2023-04-24T15:07:31;9.65;;;5.32;;
60851;SDS011;48553;50.766;2.900;2023-04-24T15:10:31;8.52;;;5.35;;
60851;SDS011;48553;50.766;2.900;2023-04-24T15:13:32;9.93;;;4.88;;
60851;SDS011;48553;50.766;2.900;2023-04-24T15:16:32;11.50;;;5.45;;
60851;SDS011;48553;50.766;2.900;2023-04-24T15:19:32;10.48;;;5.70;;
60851;SDS011;48553;50.766;2.900;2023-04-24T15:22:33;9.00;;;5.10;;
60851;SDS011;48553;50.766;2.900;2023-04-24T15:25:34;11.63;;;5.28;;
60851;SDS011;48553;50.766;2.900;2023-04-24T15:28:34;11.07;;;4.95;;
60851;SDS011;48553;50.766;2.900;2023-04-24T15:31:35;10.95;;;5.13;;
60851;SDS011;48553;50.766;2.900;2023-04-24T15:34:39;9.67;;;4.80;;
60851;SDS011;48553;50.766;2.900;2023-04-24T15:37:39;10.90;;;4.22;;
60851;SDS011;48553;50.766;2.900;2023-04-24T15:40:40;10.45;;;4.63;;
60851;SDS011;48553;50.766;2.900;2023-04-24T15:43:40;9.20;;;4.88;;
60851;SDS011;48553;50.766;2.900;2023-04-24T15:46:41;10.40;;;4.65;;
60851;SDS011;48553;50.766;2.900;2023-04-24T15:49:41;7.40;;;3.92;;
60851;SDS011;48553;50.766;2.900;2023-04-24T15:52:42;8.15;;;3.95;;
60851;SDS011;48553;50.766;2.900;2023-04-24T15:55:43;9.30;;;3.78;;
60851;SDS011;48553;50.766;2.900;2023-04-24T15:58:43;8.18;;;4.00;;
60851;SDS011;48553;50.766;2.900;2023-04-24T16:01:43;8.82;;;3.65;;
60851;SDS011;48553;50.766;2.900;2023-04-24T16:04:47;9.15;;;3.92;;
60851;SDS011;48553;50.766;2.900;2023-04-24T16:07:48;10.47;;;4.07;;
60851;SDS011;48553;50.766;2.900;2023-04-24T16:10:49;7.20;;;3.92;;
60851;SDS011;48553;50.766;2.900;2023-04-24T16:13:49;8.23;;;3.80;;
60851;SDS011;48553;50.766;2.900;2023-04-24T16:16:50;10.45;;;4.00;;
60851;SDS011;48553;50.766;2.900;2023-04-24T16:19:50;8.68;;;3.75;;
60851;SDS011;48553;50.766;2.900;2023-04-24T16:22:51;7.90;;;4.18;;
60851;SDS011;48553;50.766;2.900;2023-04-24T16:25:51;7.20;;;3.90;;
60851;SDS011;48553;50.766;2.900;2023-04-24T16:28:52;8.68;;;4.00;;
60851;SDS011;48553;50.766;2.900;2023-04-24T16:31:53;8.38;;;4.00;;
60851;SDS011;48553;50.766;2.900;2023-04-24T16:34:53;9.18;;;3.58;;
60851;SDS011;48553;50.766;2.900;2023-04-24T16:37:54;7.63;;;4.40;;
60851;SDS011;48553;50.766;2.900;2023-04-24T16:40:54;8.68;;;3.63;;
60851;SDS011;48553;50.766;2.900;2023-04-24T16:43:55;7.43;;;3.75;;
60851;SDS011;48553;50.766;2.900;2023-04-24T16:46:55;6.80;;;3.63;;
60851;SDS011;48553;50.766;2.900;2023-04-24T16:49:56;7.85;;;3.53;;
60851;SDS011;48553;50.766;2.900;2023-04-24T16:52:57;6.22;;;3.53;;
60851;SDS011;48553;50.766;2.900;2023-04-24T16:55:57;7.53;;;3.22;;
60851;SDS011;48553;50.766;2.900;2023-04-24T16:58:58;7.32;;;3.47;;
60851;SDS011;48553;50.766;2.900;2023-04-24T17:01:58;5.53;;;3.30;;
60851;SDS011;48553;50.766;2.900;2023-04-24T17:05:00;6.22;;;3.42;;
60851;SDS011;48553;50.766;2.900;2023-04-24T17:08:00;8.05;;;3.13;;
60851;SDS011;48553;50.766;2.900;2023-04-24T17:11:01;8.32;;;3.30;;
60851;SDS011;48553;50.766;2.900;2023-04-24T17:14:01;6.95;;;3.50;;
60851;SDS011;48553;50.766;2.900;2023-04-24T17:17:02;6.13;;;3.50;;
60851;SDS011;48553;50.766;2.900;2023-04-24T17:20:02;6.43;;;3.40;;
60851;SDS011;48553;50.766;2.900;2023-04-24T17:23:03;5.45;;;3.42;;
60851;SDS011;48553;50.766;2.900;2023-04-24T17:26:03;6.32;;;3.40;;
60851;SDS011;48553;50.766;2.900;2023-04-24T17:29:04;6.63;;;3.70;;
60851;SDS011;48553;50.766;2.900;2023-04-24T17:32:05;7.13;;;3.60;;
60851;SDS011;48553;50.766;2.900;2023-04-24T17:35:05;5.97;;;3.17;;
60851;SDS011;48553;50.766;2.900;2023-04-24T17:38:06;8.25;;;3.45;;
60851;SDS011;48553;50.766;2.900;2023-04-24T17:41:07;6.95;;;3.70;;
60851;SDS011;48553;50.766;2.900;2023-04-24T17:44:07;5.43;;;3.50;;
60851;SDS011;48553;50.766;2.900;2023-04-24T17:47:08;6.18;;;3.45;;
60851;SDS011;48553;50.766;2.900;2023-04-24T17:50:08;7.20;;;3.25;;
60851;SDS011;48553;50.766;2.900;2023-04-24T17:53:09;4.95;;;3.20;;
60851;SDS011;48553;50.766;2.900;2023-04-24T17:56:10;8.35;;;3.50;;
60851;SDS011;48553;50.766;2.900;2023-04-24T17:59:11;7.28;;;3.20;;